Time;durP1;ratioP1;P1;durP2;ratioP2;P2;SDS_P1;SDS_P2;PMS_P1;PMS_P2;Temp;Humidity;BMP_temperature;BMP_pressure;BME280_temperature;BME280_humidity;BME280_pressure;Samples;Min_cycle;Max_cycle;Signal;HPM_P1;HPM_P2
2021/06/21 00:00:55;;;;;;;5.43;3.40;;;640.50;1971.20;;;;;;5072745;28;20111;-78
2021/06/21 00:03:21;;;;;;;4.70;3.60;;;640.20;1971.20;;;;;;5071764;28;20472;-76
2021/06/21 00:05:47;;;;;;;7.55;3.78;;;640.10;1996.80;;;;;;5072068;28;20051;-76
2021/06/21 00:08:13;;;;;;;8.68;4.07;;;640.00;1996.80;;;;;;5071986;28;20671;-77
2021/06/21 00:10:39;;;;;;;8.38;3.75;;;615.20;2022.40;;;;;;5070805;28;20025;-77
2021/06/21 00:13:05;;;;;;;7.50;4.40;;;615.10;2048.00;;;;;;5072538;28;20020;-87
2021/06/21 00:15:31;;;;;;;8.70;4.68;;;615.00;2073.60;;;;;;5072090;28;20111;-78
2021/06/21 00:17:57;;;;;;;10.00;4.72;;;614.90;2073.60;;;;;;5072441;28;20104;-78
2021/06/21 00:20:24;;;;;;;11.05;4.82;;;614.90;2073.60;;;;;;5054386;28;20097;-78
2021/06/21 00:22:51;;;;;;;9.27;4.75;;;614.60;2073.60;;;;;;5070165;28;20445;-79
2021/06/21 00:25:18;;;;;;;12.77;5.13;;;614.60;2048.00;;;;;;5071728;28;20024;-82
2021/06/21 00:27:44;;;;;;;6.88;4.75;;;614.50;2048.00;;;;;;5072232;28;20429;-78
2021/06/21 00:30:12;;;;;;;7.97;4.43;;;589.70;2048.00;;;;;;5071935;28;20073;-77
2021/06/21 00:32:42;;;;;;;7.18;4.28;;;589.70;2048.00;;;;;;5070870;28;20025;-78
2021/06/21 00:35:09;;;;;;;6.18;4.40;;;589.50;2073.60;;;;;;5071956;28;20016;-78
2021/06/21 00:37:35;;;;;;;7.68;4.90;;;589.40;2073.60;;;;;;5071810;28;20025;-78
2021/06/21 00:40:02;;;;;;;10.88;5.43;;;589.20;2099.20;;;;;;5072255;28;20427;-78
2021/06/21 00:42:28;;;;;;;9.15;4.75;;;589.30;2099.20;;;;;;5070772;28;20028;-78
2021/06/21 00:44:54;;;;;;;8.43;4.82;;;589.30;2099.20;;;;;;5070789;28;20025;-78
2021/06/21 00:47:20;;;;;;;8.32;4.75;;;589.20;2099.20;;;;;;5071778;28;20032;-78
2021/06/21 00:49:45;;;;;;;8.50;5.00;;;589.30;2099.20;;;;;;5072417;28;20056;-78
2021/06/21 00:52:16;;;;;;;9.13;5.32;;;589.10;2124.80;;;;;;5072116;28;20468;-78
2021/06/21 00:54:42;;;;;;;8.52;4.43;;;589.00;2150.40;;;;;;5070800;28;20032;-78
2021/06/21 00:57:08;;;;;;;10.38;5.65;;;588.80;2150.40;;;;;;5071938;28;20028;-77
2021/06/21 00:59:34;;;;;;;17.60;6.20;;;588.80;2176.00;;;;;;5070357;28;20028;-78
2021/06/21 01:02:00;;;;;;;12.00;5.55;;;564.10;2176.00;;;;;;5071925;28;20154;-78
2021/06/21 01:04:26;;;;;;;10.25;5.60;;;588.80;2176.00;;;;;;5070327;28;20029;-78
2021/06/21 01:06:52;;;;;;;12.40;6.38;;;588.80;2176.00;;;;;;5071639;28;20082;-78
2021/06/21 01:09:18;;;;;;;11.45;5.82;;;588.80;2176.00;;;;;;5071540;28;20096;-78
2021/06/21 01:12:02;;;;;;;11.93;5.72;;;588.80;2201.60;;;;;;5072001;28;20456;-77
2021/06/21 01:14:42;;;;;;;12.73;5.70;;;564.10;2201.60;;;;;;5071802;28;20090;-77
2021/06/21 01:17:10;;;;;;;15.25;5.75;;;564.10;2201.60;;;;;;5071536;28;20020;-77
2021/06/21 01:19:51;;;;;;;11.15;5.88;;;564.00;2227.20;;;;;;5071825;28;20406;-77
2021/06/21 01:22:38;;;;;;;11.25;6.10;;;564.10;2227.20;;;;;;5071322;28;20107;-77
2021/06/21 01:25:28;;;;;;;17.67;6.43;;;564.00;2227.20;;;;;;5071340;28;20111;-79
2021/06/21 01:28:04;;;;;;;13.38;6.97;;;564.00;2227.20;;;;;;5071288;28;20032;-77
2021/06/21 01:30:38;;;;;;;9.95;6.15;;;564.00;2227.20;;;;;;5070348;28;20029;-77
2021/06/21 01:33:06;;;;;;;8.68;5.90;;;564.00;2227.20;;;;;;5071433;28;20024;-77
2021/06/21 01:35:47;;;;;;;10.32;6.22;;;564.00;2227.20;;;;;;5073603;28;20052;-78
2021/06/21 01:38:18;;;;;;;12.35;6.50;;;564.10;2227.20;;;;;;5075252;28;20024;-77
2021/06/21 01:40:45;;;;;;;13.27;6.63;;;564.10;2227.20;;;;;;5073984;28;20063;-77
2021/06/21 01:43:14;;;;;;;13.70;7.70;;;588.80;2201.60;;;;;;5075173;28;20043;-78
2021/06/21 01:45:42;;;;;;;10.75;8.20;;;588.90;2201.60;;;;;;5074862;28;20036;-77
2021/06/21 01:48:08;;;;;;;16.88;7.85;;;589.10;2176.00;;;;;;5075497;28;20020;-78
2021/06/21 01:50:35;;;;;;;15.55;8.05;;;589.10;2150.40;;;;;;5075223;28;20027;-77
2021/06/21 01:53:18;;;;;;;10.70;7.70;;;589.00;2150.40;;;;;;5074806;28;20063;-77
2021/06/21 01:55:56;;;;;;;9.85;6.75;;;589.10;2150.40;;;;;;5075067;28;20085;-77
2021/06/21 01:58:22;;;;;;;14.02;7.70;;;589.10;2150.40;;;;;;5074761;28;20024;-78
2021/06/21 02:00:48;;;;;;;12.10;8.10;;;589.20;2150.40;;;;;;5073786;28;20020;-77
2021/06/21 02:03:17;;;;;;;10.45;7.90;;;589.30;2124.80;;;;;;5074030;28;20470;-77
2021/06/21 02:05:43;;;;;;;12.18;8.98;;;589.10;2150.40;;;;;;5073033;28;20063;-77
2021/06/21 02:08:12;;;;;;;11.38;7.03;;;589.20;2124.80;;;;;;5074620;28;20544;-77
2021/06/21 02:10:39;;;;;;;10.25;7.70;;;589.40;2124.80;;;;;;5074353;28;20473;-77
2021/06/21 02:13:06;;;;;;;14.43;7.70;;;589.40;2099.20;;;;;;5074572;28;20096;-77
2021/06/21 02:15:32;;;;;;;14.07;7.38;;;589.20;2124.80;;;;;;5074233;28;20024;-78
2021/06/21 02:17:59;;;;;;;14.63;7.88;;;589.20;2099.20;;;;;;5074554;28;20028;-78
2021/06/21 02:20:25;;;;;;;11.15;8.07;;;589.50;2124.80;;;;;;5081959;28;20024;-78
2021/06/21 02:22:52;;;;;;;11.88;7.38;;;589.20;2124.80;;;;;;5073652;28;20486;-78
2021/06/21 02:25:18;;;;;;;14.15;7.05;;;589.40;2099.20;;;;;;5065545;28;20043;-78
2021/06/21 02:27:44;;;;;;;11.80;8.20;;;589.60;2048.00;;;;;;5072852;28;20368;-77
2021/06/21 02:30:15;;;;;;;11.43;7.38;;;589.70;2073.60;;;;;;5074069;28;20017;-77
2021/06/21 02:32:46;;;;;;;9.50;6.60;;;589.70;2073.60;;;;;;5073900;28;20024;-78
2021/06/21 02:35:14;;;;;;;12.57;6.78;;;589.60;2073.60;;;;;;5073898;28;20020;-77
2021/06/21 02:37:41;;;;;;;12.40;7.60;;;589.50;2073.60;;;;;;5073837;28;20495;-77
2021/06/21 02:40:13;;;;;;;11.60;7.32;;;589.40;2073.60;;;;;;5073960;28;20021;-77
2021/06/21 02:42:39;;;;;;;13.85;7.82;;;589.20;2073.60;;;;;;5073813;28;20056;-77
2021/06/21 02:45:06;;;;;;;9.55;6.93;;;589.10;2099.20;;;;;;5073742;28;20032;-79
2021/06/21 02:47:33;;;;;;;11.23;8.35;;;589.00;2099.20;;;;;;5073087;28;20017;-77
2021/06/21 02:49:59;;;;;;;12.70;8.57;;;564.10;2124.80;;;;;;5073786;28;20025;-77
2021/06/21 02:52:55;;;;;;;11.80;8.52;;;564.00;2150.40;;;;;;5073705;28;20034;-77
2021/06/21 02:55:25;;;;;;;10.05;6.30;;;563.90;2176.00;;;;;;5089493;28;20056;-77
2021/06/21 02:58:26;;;;;;;15.50;7.20;;;564.00;2150.40;;;;;;5073801;28;20024;-78
2021/06/21 03:00:54;;;;;;;13.68;6.35;;;563.80;2176.00;;;;;;5036710;28;20033;-77
2021/06/21 03:03:27;;;;;;;10.98;7.35;;;563.60;2176.00;;;;;;5038575;28;20051;-86
2021/06/21 03:05:54;;;;;;;15.90;6.72;;;563.60;2201.60;;;;;;5050924;28;20045;-77
2021/06/21 03:08:20;;;;;;;14.80;6.90;;;563.50;2227.20;;;;;;5051442;28;20401;-76
2021/06/21 03:10:48;;;;;;;11.85;6.82;;;563.40;2227.20;;;;;;5051157;28;20052;-77
2021/06/21 03:13:17;;;;;;;25.75;7.97;;;563.40;2227.20;;;;;;5051169;28;20029;-77
2021/06/21 03:15:43;;;;;;;10.10;6.90;;;538.50;2252.80;;;;;;5051343;28;20051;-77
2021/06/21 03:18:10;;;;;;;12.38;6.85;;;538.40;2252.80;;;;;;5050934;28;20544;-77
2021/06/21 03:20:36;;;;;;;13.48;7.10;;;538.40;2252.80;;;;;;5051167;28;20056;-77
2021/06/21 03:23:03;;;;;;;17.55;7.53;;;538.40;2278.40;;;;;;5045726;28;20049;-76
2021/06/21 03:25:34;;;;;;;27.60;8.05;;;537.90;2278.40;;;;;;5051177;28;20116;-77
2021/06/21 03:28:12;;;;;;;12.45;6.90;;;538.50;2252.80;;;;;;5050771;28;20037;-76
2021/06/21 03:30:48;;;;;;;13.82;6.82;;;563.20;2278.40;;;;;;5050693;28;20409;-76
2021/06/21 03:33:14;;;;;;;14.50;8.10;;;563.20;2278.40;;;;;;5050788;28;20033;-77
2021/06/21 03:35:39;;;;;;;16.77;8.35;;;538.50;2252.80;;;;;;5055669;28;20055;-77
2021/06/21 03:38:19;;;;;;;15.77;8.10;;;563.20;2278.40;;;;;;5073025;28;20419;-77
2021/06/21 03:40:46;;;;;;;12.20;6.95;;;563.30;2278.40;;;;;;5058613;28;20074;-77
2021/06/21 03:43:14;;;;;;;12.73;8.85;;;563.40;2278.40;;;;;;5072869;28;20069;-77
2021/06/21 03:45:41;;;;;;;12.05;7.72;;;563.70;2252.80;;;;;;5072576;28;20070;-78
2021/06/21 03:48:07;;;;;;;10.77;7.55;;;563.90;2227.20;;;;;;5072631;28;20096;-77
2021/06/21 03:50:33;;;;;;;9.85;7.40;;;564.00;2227.20;;;;;;5088195;28;20028;-85
2021/06/21 03:52:59;;;;;;;14.90;9.88;;;564.00;2227.20;;;;;;5072300;28;20035;-78
2021/06/21 03:55:25;;;;;;;12.70;7.47;;;564.00;2227.20;;;;;;5072729;28;20101;-85
2021/06/21 03:57:51;;;;;;;12.88;7.95;;;564.00;2227.20;;;;;;5071247;28;20115;-78
2021/06/21 04:00:20;;;;;;;10.73;7.50;;;564.10;2227.20;;;;;;5072490;28;20063;-78
2021/06/21 04:02:46;;;;;;;11.10;7.88;;;564.10;2201.60;;;;;;5072300;28;20031;-78
2021/06/21 04:05:13;;;;;;;13.25;8.32;;;564.10;2227.20;;;;;;5072297;28;20027;-78
2021/06/21 04:07:40;;;;;;;10.70;7.70;;;564.10;2201.60;;;;;;5072293;28;20071;-77
2021/06/21 04:10:15;;;;;;;17.85;8.43;;;564.10;2201.60;;;;;;5072279;28;20013;-78
2021/06/21 04:12:41;;;;;;;13.77;7.97;;;588.80;2201.60;;;;;;5087933;28;20028;-78
2021/06/21 04:15:09;;;;;;;12.23;7.70;;;589.00;2201.60;;;;;;5072247;28;20262;-78
2021/06/21 04:17:36;;;;;;;14.82;7.95;;;589.10;2201.60;;;;;;5072304;28;20029;-78
2021/06/21 04:20:07;;;;;;;14.30;9.82;;;589.30;2176.00;;;;;;5071760;28;20464;-78
2021/06/21 04:22:33;;;;;;;18.23;9.80;;;589.40;2150.40;;;;;;5072055;28;20032;-78
2021/06/21 04:24:59;;;;;;;17.23;9.00;;;589.50;2124.80;;;;;;5057892;28;20032;-76
2021/06/21 04:27:24;;;;;;;16.90;8.55;;;589.50;2150.40;;;;;;5070700;28;20041;-76
2021/06/21 04:29:50;;;;;;;21.58;9.23;;;589.70;2124.80;;;;;;5071925;28;20047;-76
2021/06/21 04:32:16;;;;;;;18.48;9.45;;;614.40;2099.20;;;;;;5072024;28;20032;-76
2021/06/21 04:34:42;;;;;;;13.13;8.18;;;614.50;2099.20;;;;;;5071992;28;20020;-76
2021/06/21 04:37:08;;;;;;;12.15;7.72;;;614.50;2099.20;;;;;;5071773;28;20021;-76
2021/06/21 04:39:33;;;;;;;15.68;9.05;;;614.50;2099.20;;;;;;5072254;28;20107;-78
2021/06/21 04:41:59;;;;;;;16.60;8.63;;;589.70;2124.80;;;;;;5072003;28;20099;-77
2021/06/21 04:44:25;;;;;;;20.48;8.57;;;589.70;2124.80;;;;;;5072102;28;20461;-82
2021/06/21 04:46:51;;;;;;;15.45;8.90;;;589.60;2150.40;;;;;;5071857;28;20047;-82
2021/06/21 04:49:17;;;;;;;18.02;8.65;;;589.60;2150.40;;;;;;5072066;28;20030;-76
2021/06/21 04:51:45;;;;;;;14.65;8.82;;;589.70;2150.40;;;;;;5070587;28;20423;-79
2021/06/21 04:54:11;;;;;;;16.38;8.80;;;589.70;2150.40;;;;;;5071502;28;20040;-75
2021/06/21 04:56:38;;;;;;;15.15;7.85;;;589.70;2150.40;;;;;;5071983;28;20035;-77
2021/06/21 04:59:04;;;;;;;17.73;8.18;;;589.70;2150.40;;;;;;5071661;28;20077;-77
2021/06/21 05:01:30;;;;;;;11.52;6.95;;;614.70;2150.40;;;;;;5071916;28;20059;-76
2021/06/21 05:04:01;;;;;;;13.32;7.22;;;614.40;2124.80;;;;;;5071339;28;20365;-82
2021/06/21 05:06:28;;;;;;;15.38;7.53;;;614.40;2124.80;;;;;;5071320;28;20119;-75
2021/06/21 05:08:54;;;;;;;17.35;7.45;;;614.40;2150.40;;;;;;5071335;28;20055;-79
2021/06/21 05:11:20;;;;;;;12.80;7.65;;;614.50;2124.80;;;;;;5073875;28;20020;-76
2021/06/21 05:13:46;;;;;;;11.25;6.50;;;614.60;2124.80;;;;;;5075406;28;20021;-77
2021/06/21 05:16:12;;;;;;;14.60;7.30;;;614.80;2099.20;;;;;;5074287;28;20464;-78
2021/06/21 05:18:38;;;;;;;12.00;6.35;;;614.80;2099.20;;;;;;5074633;28;20040;-79
2021/06/21 05:21:04;;;;;;;11.13;6.68;;;614.80;2099.20;;;;;;5075246;28;20103;-77
2021/06/21 05:23:30;;;;;;;11.75;6.60;;;614.90;2099.20;;;;;;5075309;28;20044;-79
2021/06/21 05:25:56;;;;;;;8.55;6.30;;;615.00;2073.60;;;;;;5073721;28;20500;-77
2021/06/21 05:28:22;;;;;;;13.70;7.28;;;615.10;2099.20;;;;;;5075293;28;20032;-82
2021/06/21 05:30:48;;;;;;;19.00;7.13;;;615.20;2073.60;;;;;;5075316;28;20032;-78
2021/06/21 05:33:14;;;;;;;14.00;6.97;;;615.20;2048.00;;;;;;5073499;28;20020;-81
2021/06/21 05:35:41;;;;;;;11.18;6.55;;;615.30;2048.00;;;;;;5074533;28;20016;-79
2021/06/21 05:38:08;;;;;;;11.10;6.07;;;640.00;2048.00;;;;;;5075292;28;20086;-77
2021/06/21 05:40:33;;;;;;;11.85;6.85;;;640.00;2048.00;;;;;;5074974;28;20109;-77
2021/06/21 05:42:59;;;;;;;11.48;5.88;;;640.20;2048.00;;;;;;5074951;28;20105;-78
2021/06/21 05:45:25;;;;;;;11.80;5.28;;;640.30;2022.40;;;;;;5075436;28;20365;-77
2021/06/21 05:47:51;;;;;;;8.60;5.15;;;640.40;1996.80;;;;;;5075271;28;20402;-76
2021/06/21 05:50:17;;;;;;;9.02;6.00;;;640.60;1971.20;;;;;;5074984;28;20091;-80
2021/06/21 05:52:43;;;;;;;16.00;9.82;;;640.70;1971.20;;;;;;5074438;28;20052;-81
2021/06/21 05:55:09;;;;;;;20.05;11.75;;;640.70;1945.60;;;;;;5075088;28;20016;-77
2021/06/21 05:57:35;;;;;;;14.00;7.30;;;640.80;1945.60;;;;;;5074614;28;20574;-77
2021/06/21 06:00:05;;;;;;;20.00;7.45;;;640.90;1894.40;;;;;;5075068;28;20024;-77
2021/06/21 06:02:31;;;;;;;14.48;7.22;;;640.90;1920.00;;;;;;5074706;28;20024;-77
2021/06/21 06:04:57;;;;;;;11.27;5.35;;;665.60;1971.20;;;;;;5073799;28;20461;-77
2021/06/21 06:07:24;;;;;;;10.13;5.90;;;665.70;1945.60;;;;;;5074772;28;20028;-80
2021/06/21 06:09:50;;;;;;;11.93;5.55;;;665.80;1920.00;;;;;;5072674;28;20036;-81
2021/06/21 06:12:17;;;;;;;8.50;5.30;;;666.00;1920.00;;;;;;5072009;28;20020;-81
2021/06/21 06:14:43;;;;;;;14.50;4.85;;;666.00;1868.80;;;;;;5071649;28;20056;-81
2021/06/21 06:17:09;;;;;;;10.80;5.13;;;666.20;1920.00;;;;;;5073440;28;20487;-81
2021/06/21 06:19:34;;;;;;;8.43;5.35;;;666.30;1894.40;;;;;;5072774;28;20029;-78
2021/06/21 06:22:00;;;;;;;7.55;4.95;;;666.30;1868.80;;;;;;5072077;28;20505;-79
2021/06/21 06:24:26;;;;;;;11.90;5.88;;;666.40;1894.40;;;;;;5072971;28;20044;-78
2021/06/21 06:26:52;;;;;;;9.02;4.70;;;666.50;1920.00;;;;;;5072770;28;20085;-81
2021/06/21 06:29:19;;;;;;;9.45;4.63;;;666.30;1894.40;;;;;;5072913;28;20031;-81
2021/06/21 06:31:47;;;;;;;7.00;4.93;;;691.20;1868.80;;;;;;5073212;28;20027;-77
2021/06/21 06:34:14;;;;;;;11.02;4.70;;;691.40;1894.40;;;;;;5072072;28;20384;-80
2021/06/21 06:36:39;;;;;;;10.93;5.20;;;691.50;1843.20;;;;;;5072570;28;20017;-77
2021/06/21 06:39:06;;;;;;;8.88;5.22;;;691.50;1843.20;;;;;;5073940;28;20021;-81
2021/06/21 06:41:33;;;;;;;9.38;4.10;;;691.50;1817.60;;;;;;5073915;28;20031;-78
2021/06/21 06:43:59;;;;;;;8.80;5.03;;;691.60;1817.60;;;;;;5073880;28;20104;-77
2021/06/21 06:46:24;;;;;;;7.18;5.40;;;691.60;1843.20;;;;;;5073789;28;20119;-78
2021/06/21 06:48:50;;;;;;;8.43;5.15;;;691.80;1843.20;;;;;;5074007;28;20029;-78
2021/06/21 06:51:16;;;;;;;9.40;4.70;;;692.00;1817.60;;;;;;5072911;28;20032;-80
2021/06/21 06:54:01;;;;;;;7.53;4.40;;;692.10;1792.00;;;;;;5072915;28;20484;-80
2021/06/21 06:59:11;;;;;;;9.43;4.38;;;717.00;1766.40;;;;;;5072363;28;20040;-77
2021/06/21 07:01:37;;;;;;;16.20;5.07;;;717.10;1766.40;;;;;;5073638;28;20480;-77
2021/06/21 07:04:03;;;;;;;12.20;6.30;;;717.10;1792.00;;;;;;5071841;28;20385;-77
2021/06/21 07:06:29;;;;;;;7.95;4.88;;;717.20;1766.40;;;;;;5073136;28;20028;-77
2021/06/21 07:08:55;;;;;;;9.05;5.22;;;717.20;1740.80;;;;;;5072111;28;20111;-77
2021/06/21 07:11:20;;;;;;;9.63;4.35;;;717.10;1715.20;;;;;;5073013;28;20392;-77
2021/06/21 07:13:46;;;;;;;6.97;4.18;;;717.10;1715.20;;;;;;5073549;28;20078;-82
2021/06/21 07:16:12;;;;;;;7.90;4.18;;;717.20;1740.80;;;;;;5071906;28;20497;-78
2021/06/21 07:18:38;;;;;;;6.97;4.35;;;717.10;1792.00;;;;;;5073423;28;20024;-79
2021/06/21 07:21:04;;;;;;;12.73;4.65;;;717.10;1766.40;;;;;;5073000;28;20095;-76
2021/06/21 07:23:30;;;;;;;4.90;4.18;;;717.10;1766.40;;;;;;5073005;28;20111;-77
2021/06/21 07:25:57;;;;;;;4.43;4.03;;;717.20;1766.40;;;;;;5072922;28;20107;-82
2021/06/21 07:28:23;;;;;;;8.55;4.15;;;717.60;1740.80;;;;;;5072839;28;20032;-79
2021/06/21 07:30:48;;;;;;;10.55;4.68;;;717.50;1689.60;;;;;;5071351;28;20392;-78
2021/06/21 07:33:14;;;;;;;9.48;4.57;;;717.70;1740.80;;;;;;5072254;28;20222;-78
2021/06/21 07:35:40;;;;;;;7.88;4.22;;;742.40;1740.80;;;;;;5071568;28;20032;-79
2021/06/21 07:38:08;;;;;;;6.95;3.83;;;742.40;1715.20;;;;;;5071707;28;20021;-82
2021/06/21 07:40:38;;;;;;;5.05;4.07;;;742.40;1689.60;;;;;;5072790;28;20020;-78
2021/06/21 07:43:04;;;;;;;8.35;3.85;;;742.40;1664.00;;;;;;5071338;28;20056;-79
2021/06/21 07:45:30;;;;;;;5.78;4.40;;;742.50;1689.60;;;;;;5072695;28;20060;-78
2021/06/21 07:47:58;;;;;;;6.57;4.45;;;742.70;1715.20;;;;;;5072484;28;20108;-82
2021/06/21 07:50:28;;;;;;;7.90;4.18;;;742.80;1740.80;;;;;;5072739;28;20127;-78
2021/06/21 07:52:55;;;;;;;6.47;3.40;;;742.90;1664.00;;;;;;5072582;28;20532;-80
2021/06/21 07:55:24;;;;;;;6.75;4.43;;;743.00;1664.00;;;;;;5071892;28;20021;-79
2021/06/21 07:57:51;;;;;;;9.75;4.10;;;743.00;1664.00;;;;;;5072628;28;20487;-78
2021/06/21 08:00:20;;;;;;;7.72;3.97;;;743.20;1689.60;;;;;;5072430;28;20020;-79
2021/06/21 08:02:45;;;;;;;5.32;3.53;;;743.10;1612.80;;;;;;5070762;28;20067;-78
2021/06/21 08:05:11;;;;;;;8.68;4.30;;;743.30;1638.40;;;;;;5072365;28;20052;-82
2021/06/21 08:07:37;;;;;;;6.28;4.30;;;768.00;1587.20;;;;;;5072302;28;20522;-78
2021/06/21 08:10:04;;;;;;;8.55;3.80;;;768.10;1612.80;;;;;;5070827;28;20016;-79
2021/06/21 08:12:29;;;;;;;7.18;3.88;;;768.40;1587.20;;;;;;5071330;28;20341;-82
2021/06/21 08:14:55;;;;;;;7.03;3.70;;;768.20;1587.20;;;;;;5070757;28;20023;-80
2021/06/21 08:17:21;;;;;;;9.23;3.92;;;768.50;1510.40;;;;;;5069428;28;20492;-76
2021/06/21 08:19:47;;;;;;;50.90;8.38;;;768.60;1536.00;;;;;;5071957;28;20362;-77
2021/06/21 08:22:13;;;;;;;6.20;4.10;;;768.60;1587.20;;;;;;5078596;28;20024;-76
2021/06/21 08:24:41;;;;;;;7.40;4.28;;;768.60;1510.40;;;;;;5064621;28;20094;-77
2021/06/21 08:27:08;;;;;;;7.70;3.60;;;768.60;1510.40;;;;;;5071532;28;20456;-77
2021/06/21 08:29:33;;;;;;;6.85;3.85;;;768.70;1459.20;;;;;;5071688;28;20020;-76
2021/06/21 08:31:59;;;;;;;5.43;4.00;;;768.60;1484.80;;;;;;5067317;28;20037;-77
2021/06/21 08:34:25;;;;;;;6.22;3.70;;;768.60;1459.20;;;;;;5071275;28;20036;-75
2021/06/21 08:36:51;;;;;;;5.22;3.75;;;768.80;1459.20;;;;;;5071328;28;20035;-76
2021/06/21 08:39:16;;;;;;;7.13;3.75;;;768.90;1459.20;;;;;;5072266;28;20028;-76
2021/06/21 08:41:42;;;;;;;7.68;4.13;;;768.90;1459.20;;;;;;5071375;28;20544;-79
2021/06/21 08:44:08;;;;;;;4.85;4.35;;;768.90;1382.40;;;;;;5069789;28;20051;-76
2021/06/21 08:46:34;;;;;;;8.60;3.75;;;768.90;1408.00;;;;;;5071728;28;20111;-76
2021/06/21 08:49:03;;;;;;;7.10;4.38;;;793.70;1382.40;;;;;;5071929;28;20028;-80
2021/06/21 08:51:28;;;;;;;7.13;4.07;;;793.60;1382.40;;;;;;5072160;28;20032;-80
2021/06/21 08:53:54;;;;;;;5.90;4.05;;;793.70;1433.60;;;;;;5070693;28;20033;-76
2021/06/21 08:56:20;;;;;;;7.72;4.22;;;794.00;1433.60;;;;;;5071327;28;20543;-75
2021/06/21 08:58:46;;;;;;;6.47;3.97;;;794.00;1433.60;;;;;;5071198;28;20094;-79
2021/06/21 09:01:11;;;;;;;5.55;3.80;;;793.70;1408.00;;;;;;5071276;28;20025;-75
2021/06/21 09:03:38;;;;;;;7.82;3.70;;;794.00;1331.20;;;;;;5071424;28;20078;-80
2021/06/21 09:06:16;;;;;;;5.90;3.10;;;794.10;1356.80;;;;;;5071512;28;20036;-76
2021/06/21 09:09:12;;;;;;;9.50;5.07;;;794.20;1305.60;;;;;;5055584;28;20036;-79
2021/06/21 09:11:46;;;;;;;7.93;3.50;;;794.40;1331.20;;;;;;5049279;28;20546;-78
2021/06/21 09:14:30;;;;;;;5.70;3.83;;;794.40;1356.80;;;;;;5047316;28;20064;-74
2021/06/21 09:17:04;;;;;;;17.50;9.13;;;819.20;1356.80;;;;;;5048059;28;20600;-74
2021/06/21 09:19:31;;;;;;;10.60;4.70;;;819.20;1331.20;;;;;;5045165;28;20038;-74
2021/06/21 09:21:57;;;;;;;5.90;3.25;;;819.30;1331.20;;;;;;5049113;28;20040;-75
2021/06/21 09:24:29;;;;;;;7.65;3.80;;;819.40;1305.60;;;;;;5049190;28;20061;-75
2021/06/21 09:26:59;;;;;;;6.03;4.03;;;819.60;1305.60;;;;;;5049036;28;20064;-76
2021/06/21 09:29:32;;;;;;;5.90;4.10;;;819.60;1331.20;;;;;;5049387;28;20032;-79
2021/06/21 09:31:58;;;;;;;6.13;4.30;;;819.60;1305.60;;;;;;5047887;28;20476;-76
2021/06/21 09:34:26;;;;;;;5.63;3.72;;;819.80;1331.20;;;;;;5048716;28;20170;-75
2021/06/21 09:37:04;;;;;;;6.88;3.75;;;819.90;1305.60;;;;;;5049379;28;20017;-79
2021/06/21 09:39:33;;;;;;;5.00;3.80;;;820.10;1254.40;;;;;;5049023;28;20036;-75
2021/06/21 09:42:20;;;;;;;5.78;4.03;;;820.10;1228.80;;;;;;5038751;28;20103;-75
2021/06/21 09:44:55;;;;;;;5.32;3.58;;;820.10;1254.40;;;;;;5037549;28;20145;-76
2021/06/21 09:47:29;;;;;;;10.98;3.88;;;844.80;1280.00;;;;;;5053763;28;20052;-76
2021/06/21 09:50:15;;;;;;;9.30;4.30;;;844.80;1228.80;;;;;;5071311;28;20040;-76
2021/06/21 09:52:50;;;;;;;6.78;3.67;;;820.10;1280.00;;;;;;5070789;28;20024;-75
2021/06/21 09:55:33;;;;;;;4.05;3.65;;;844.80;1254.40;;;;;;5071254;28;20051;-76
2021/06/21 09:58:05;;;;;;;5.53;3.63;;;845.00;1280.00;;;;;;5074821;28;20020;-75
2021/06/21 10:00:31;;;;;;;5.78;3.70;;;845.20;1280.00;;;;;;5075033;28;20345;-77
2021/06/21 10:03:09;;;;;;;6.65;3.67;;;845.30;1228.80;;;;;;5074345;28;20024;-74
2021/06/21 10:05:39;;;;;;;6.40;3.78;;;845.30;1254.40;;;;;;5073589;28;20455;-75
2021/06/21 10:08:05;;;;;;;7.53;4.03;;;845.30;1254.40;;;;;;5075829;28;20390;-76
2021/06/21 10:10:33;;;;;;;6.68;3.67;;;845.40;1254.40;;;;;;5074692;28;20017;-80
2021/06/21 10:12:58;;;;;;;10.20;4.15;;;845.30;1280.00;;;;;;5074604;28;20028;-77
2021/06/21 10:15:24;;;;;;;6.07;3.58;;;845.10;1254.40;;;;;;5073175;28;20017;-76
2021/06/21 10:17:50;;;;;;;7.22;3.88;;;845.10;1280.00;;;;;;5073311;28;20032;-76
2021/06/21 10:20:16;;;;;;;8.48;4.15;;;844.90;1280.00;;;;;;5074147;28;20020;-79
2021/06/21 10:22:42;;;;;;;7.72;3.80;;;844.90;1280.00;;;;;;5074089;28;20390;-77
2021/06/21 10:25:11;;;;;;;6.15;3.78;;;845.00;1280.00;;;;;;5074297;28;20086;-75
2021/06/21 10:27:45;;;;;;;4.80;3.75;;;845.10;1280.00;;;;;;5074167;28;20044;-75
2021/06/21 10:30:14;;;;;;;6.30;4.35;;;844.90;1228.80;;;;;;5074141;28;20380;-76
2021/06/21 10:32:41;;;;;;;5.35;3.88;;;845.10;1254.40;;;;;;5074153;28;20053;-76
2021/06/21 10:35:09;;;;;;;4.80;3.75;;;845.40;1203.20;;;;;;5074301;28;20036;-75
2021/06/21 10:37:36;;;;;;;7.97;4.10;;;845.30;1152.00;;;;;;5073967;28;20480;-77
2021/06/21 10:40:09;;;;;;;6.82;3.83;;;845.50;1152.00;;;;;;5073036;28;20056;-76
2021/06/21 10:42:43;;;;;;;5.78;3.38;;;845.50;1100.80;;;;;;5072124;28;20036;-76
2021/06/21 10:45:18;;;;;;;7.30;3.30;;;845.40;1126.40;;;;;;5070947;28;20024;-77
2021/06/21 10:47:50;;;;;;;4.82;3.20;;;845.20;1152.00;;;;;;5073659;28;20032;-78
2021/06/21 10:50:19;;;;;;;10.20;4.05;;;845.50;1152.00;;;;;;5071945;28;20020;-75
2021/06/21 10:52:48;;;;;;;5.65;3.50;;;845.50;1152.00;;;;;;5070661;28;20070;-76
2021/06/21 10:55:26;;;;;;;7.75;3.40;;;845.40;1152.00;;;;;;5073096;28;20120;-74
2021/06/21 10:57:58;;;;;;;5.43;3.58;;;845.40;1126.40;;;;;;5071765;28;20021;-75
2021/06/21 11:00:51;;;;;;;4.63;3.17;;;845.40;1126.40;;;;;;5070473;28;20024;-76
2021/06/21 11:03:26;;;;;;;11.18;4.25;;;845.40;1126.40;;;;;;5073301;28;20082;-75
2021/06/21 11:05:54;;;;;;;5.45;4.00;;;845.20;1203.20;;;;;;5073329;28;20349;-74
2021/06/21 11:08:25;;;;;;;8.05;3.63;;;845.30;1203.20;;;;;;5072621;28;20033;-74
2021/06/21 11:10:56;;;;;;;8.18;3.80;;;845.00;1152.00;;;;;;5072651;28;20016;-74
2021/06/21 11:13:34;;;;;;;6.85;4.00;;;844.90;1152.00;;;;;;5070787;28;20040;-74
2021/06/21 11:16:15;;;;;;;5.03;3.83;;;844.90;1152.00;;;;;;5070258;28;20039;-80
2021/06/21 11:18:42;;;;;;;5.78;4.10;;;844.90;1177.60;;;;;;5069983;28;20025;-75
2021/06/21 11:21:15;;;;;;;10.20;4.65;;;844.90;1177.60;;;;;;5072759;28;20407;-75
2021/06/21 11:23:46;;;;;;;6.43;4.38;;;844.80;1203.20;;;;;;5072144;28;20048;-75
2021/06/21 11:26:12;;;;;;;7.18;4.55;;;844.80;1177.60;;;;;;5073042;28;20024;-75
2021/06/21 11:28:45;;;;;;;9.43;4.28;;;844.80;1228.80;;;;;;5072951;28;20031;-75
2021/06/21 11:31:24;;;;;;;10.10;4.35;;;844.80;1280.00;;;;;;5072841;28;20024;-75
2021/06/21 11:34:07;;;;;;;4.85;4.10;;;844.80;1203.20;;;;;;5072917;28;20025;-76
2021/06/21 11:36:48;;;;;;;4.90;3.83;;;820.10;1177.60;;;;;;5073038;28;20029;-75
2021/06/21 11:39:28;;;;;;;5.18;4.20;;;844.80;1203.20;;;;;;5072702;28;20060;-80
2021/06/21 11:42:02;;;;;;;5.95;4.88;;;844.80;1228.80;;;;;;5072733;28;20123;-79
2021/06/21 11:44:37;;;;;;;7.60;5.20;;;845.10;1228.80;;;;;;5072814;28;20044;-79
2021/06/21 11:47:20;;;;;;;11.05;4.70;;;845.30;1203.20;;;;;;5088229;28;20041;-75
2021/06/21 11:49:51;;;;;;;6.70;4.70;;;845.40;1203.20;;;;;;5071569;28;20123;-74
2021/06/21 11:52:20;;;;;;;10.25;4.30;;;845.50;1152.00;;;;;;5072486;28;20515;-75
2021/06/21 11:54:48;;;;;;;8.50;4.57;;;845.70;1177.60;;;;;;5072344;28;20021;-75
2021/06/21 11:57:15;;;;;;;8.13;4.80;;;845.70;1203.20;;;;;;5072851;28;20372;-75
2021/06/21 11:59:44;;;;;;;8.48;4.97;;;870.50;1177.60;;;;;;5072409;28;20137;-75
2021/06/21 12:02:13;;;;;;;18.08;5.78;;;870.50;1152.00;;;;;;5072387;28;20082;-75
2021/06/21 12:04:40;;;;;;;11.38;5.07;;;845.70;1177.60;;;;;;5072318;28;20088;-75
2021/06/21 12:07:07;;;;;;;5.68;4.70;;;870.50;1126.40;;;;;;5072321;28;20067;-78
2021/06/21 12:10:00;;;;;;;8.57;4.55;;;870.50;1126.40;;;;;;5072156;28;20029;-75
2021/06/21 12:12:29;;;;;;;6.13;5.20;;;870.60;1100.80;;;;;;5071079;28;20105;-74
2021/06/21 12:14:55;;;;;;;6.28;5.00;;;870.70;1126.40;;;;;;5072295;28;20052;-78
2021/06/21 12:17:24;;;;;;;9.45;4.93;;;870.80;1100.80;;;;;;5072092;28;20089;-75
2021/06/21 12:20:06;;;;;;;8.82;5.20;;;870.80;1075.20;;;;;;5069960;28;20430;-75
2021/06/21 12:22:33;;;;;;;5.72;4.43;;;870.90;1049.60;;;;;;5071923;28;20047;-74
2021/06/21 12:24:59;;;;;;;5.43;3.88;;;870.90;998.40;;;;;;5071869;28;20059;-75